Time;durP1;ratioP1;P1;durP2;ratioP2;P2;SDS_P1;SDS_P2;PMS_P1;PMS_P2;Temp;Humidity;BMP_temperature;BMP_pressure;BME280_temperature;BME280_humidity;BME280_pressure;Samples;Min_cycle;Max_cycle;Signal;HPM_P1;HPM_P2
2022/07/07 00:00:38;;;;;;;;;;;;;;;24.36;70.22;99341.78;5053062;28;20428;-40
2022/07/07 00:03:04;;;;;;;;;;;;;;;23.99;72.79;99349.25;5054757;28;19931;-40
2022/07/07 00:05:29;;;;;;;;;;;;;;;24.23;72.33;99345.56;5053507;28;20271;-40
2022/07/07 00:07:54;;;;;;;;;;;;;;;24.15;73.86;99341.78;5052115;28;19916;-40
2022/07/07 00:10:19;;;;;;;;;;;;;;;24.61;70.54;99332.66;5052867;28;19928;-40
2022/07/07 00:12:45;;;;;;;;;;;;;;;24.43;72.73;99328.94;5052928;28;19927;-40
2022/07/07 00:15:10;;;;;;;;;;;;;;;24.11;74.92;99324.56;5053550;28;19928;-40
2022/07/07 00:17:36;;;;;;;;;;;;;;;24.48;73.40;99318.88;5052730;28;19924;-40
2022/07/07 00:20:02;;;;;;;;;;;;;;;24.62;72.90;99318.53;5053932;28;20025;-40
2022/07/07 00:22:27;;;;;;;;;;;;;;;24.04;76.17;99320.78;5053609;28;19924;-40
2022/07/07 00:24:52;;;;;;;;;;;;;;;24.30;74.76;99318.59;5052889;28;20389;-40
2022/07/07 00:27:17;;;;;;;;;;;;;;;24.36;73.82;99312.00;5052447;28;19921;-40
2022/07/07 00:29:43;;;;;;;;;;;;;;;24.78;72.51;99306.69;5050220;28;19920;-40
2022/07/07 00:32:09;;;;;;;;;;;;;;;24.72;72.53;99307.19;5052370;28;20029;-40
2022/07/07 00:34:35;;;;;;;;;;;;;;;24.63;71.48;99303.53;5052763;28;20378;-40
2022/07/07 00:37:01;;;;;;;;;;;;;;;24.24;74.63;99299.84;5053032;28;20018;-41
2022/07/07 00:39:26;;;;;;;;;;;;;;;24.43;73.63;99294.72;5052519;28;19920;-40
2022/07/07 00:41:51;;;;;;;;;;;;;;;24.77;71.18;99284.78;5052093;28;19940;-40
2022/07/07 00:44:17;;;;;;;;;;;;;;;24.75;71.94;99276.19;5052419;28;19920;-40
2022/07/07 00:46:46;;;;;;;;;;;;;;;24.76;69.97;99277.00;5051915;28;19927;-40
2022/07/07 00:49:11;;;;;;;;;;;;;;;24.43;72.16;99271.84;5052833;28;19954;-40
2022/07/07 00:51:37;;;;;;;;;;;;;;;24.49;72.34;99273.13;5053140;28;19978;-40
2022/07/07 00:54:02;;;;;;;;;;;;;;;24.69;70.59;99266.16;5054509;28;19916;-40
2022/07/07 00:56:27;;;;;;;;;;;;;;;24.46;71.70;99264.66;5052512;28;19931;-40
2022/07/07 00:58:53;;;;;;;;;;;;;;;24.05;74.99;99267.19;5051705;28;19920;-40
2022/07/07 01:01:18;;;;;;;;;;;;;;;24.48;74.12;99263.59;5051161;28;19924;-40
2022/07/07 01:03:43;;;;;;;;;;;;;;;24.60;72.74;99259.88;5053163;28;19950;-40
2022/07/07 01:06:08;;;;;;;;;;;;;;;24.41;74.26;99252.72;5051741;28;20798;-40
2022/07/07 01:08:34;;;;;;;;;;;;;;;24.13;75.10;99262.13;5050570;28;20400;-40
2022/07/07 01:10:59;;;;;;;;;;;;;;;24.46;75.43;99251.50;5049903;28;21221;-40
2022/07/07 01:13:25;;;;;;;;;;;;;;;24.16;76.50;99261.84;5052390;28;19928;-40
2022/07/07 01:15:50;;;;;;;;;;;;;;;24.08;78.29;99261.66;5048660;28;19927;-40
2022/07/07 01:18:15;;;;;;;;;;;;;;;23.96;82.82;99268.78;5051253;28;19928;-40
2022/07/07 01:20:45;;;;;;;;;;;;;;;24.35;80.54;99261.13;5048322;28;20145;-40
2022/07/07 01:23:11;;;;;;;;;;;;;;;24.00;82.85;99274.63;5048224;28;19957;-40
2022/07/07 01:25:36;;;;;;;;;;;;;;;23.30;90.09;99271.53;5049095;28;19921;-40
2022/07/07 01:28:01;;;;;;;;;;;;;;;22.77;100.00;99273.97;5050784;28;20336;-39
2022/07/07 01:30:26;;;;;;;;;;;;;;;22.77;100.00;99268.72;5050086;28;20313;-39
2022/07/07 01:32:51;;;;;;;;;;;;;;;22.22;100.00;99272.97;5049870;28;19943;-40
2022/07/07 01:35:17;;;;;;;;;;;;;;;22.57;100.00;99266.81;5049663;28;19924;-40
2022/07/07 01:37:42;;;;;;;;;;;;;;;23.32;100.00;99261.72;5050123;28;19969;-40
2022/07/07 01:40:07;;;;;;;;;;;;;;;23.07;100.00;99268.09;5051779;28;19926;-40
2022/07/07 01:42:33;;;;;;;;;;;;;;;22.49;100.00;99268.25;5050865;28;19924;-39
2022/07/07 01:44:58;;;;;;;;;;;;;;;23.58;100.00;99250.88;5050378;28;19924;-39
2022/07/07 01:47:23;;;;;;;;;;;;;;;23.13;100.00;99264.19;5050580;28;19924;-40
2022/07/07 01:49:49;;;;;;;;;;;;;;;23.46;100.00;99255.34;5050145;28;19920;-40
2022/07/07 01:52:14;;;;;;;;;;;;;;;23.44;100.00;99256.44;5052034;28;19989;-40
2022/07/07 01:54:40;;;;;;;;;;;;;;;23.90;100.00;99247.41;5051558;28;20027;-40
2022/07/07 01:57:06;;;;;;;;;;;;;;;23.86;98.06;99238.97;5037642;28;19920;-40
2022/07/07 01:59:31;;;;;;;;;;;;;;;24.08;98.68;99231.88;5049752;28;19930;-40
2022/07/07 02:01:56;;;;;;;;;;;;;;;24.28;98.94;99224.94;5051376;28;20687;-40
2022/07/07 02:04:22;;;;;;;;;;;;;;;24.24;97.05;99223.53;5051375;28;19927;-40
2022/07/07 02:06:47;;;;;;;;;;;;;;;24.26;97.53;99216.34;5051500;28;20316;-40
2022/07/07 02:09:12;;;;;;;;;;;;;;;24.01;98.96;99221.88;5050716;28;19927;-40
2022/07/07 02:11:38;;;;;;;;;;;;;;;23.82;100.00;99215.69;5050851;28;20738;-40
2022/07/07 02:14:03;;;;;;;;;;;;;;;24.10;95.30;99203.66;5052612;28;19916;-40
2022/07/07 02:16:28;;;;;;;;;;;;;;;24.31;99.28;99209.69;5049969;28;20285;-40
2022/07/07 02:18:55;;;;;;;;;;;;;;;24.27;99.31;99205.69;5050220;28;19920;-40
2022/07/07 02:21:20;;;;;;;;;;;;;;;24.12;100.00;99205.19;5049310;28;19989;-40
2022/07/07 02:23:46;;;;;;;;;;;;;;;23.88;100.00;99196.72;5049948;28;19924;-40
2022/07/07 02:26:11;;;;;;;;;;;;;;;23.90;98.02;99195.66;5051592;28;20564;-40
2022/07/07 02:28:37;;;;;;;;;;;;;;;23.74;100.00;99195.22;5050050;28;20651;-40
2022/07/07 02:31:02;;;;;;;;;;;;;;;23.57;100.00;99202.72;5049959;28;20258;-40
2022/07/07 02:33:27;;;;;;;;;;;;;;;23.64;100.00;99183.81;5050244;28;20297;-40
2022/07/07 02:35:53;;;;;;;;;;;;;;;23.46;99.37;99191.44;5031767;28;21173;-40
2022/07/07 02:38:18;;;;;;;;;;;;;;;23.24;100.00;99197.59;5050256;28;20582;-40
2022/07/07 02:40:44;;;;;;;;;;;;;;;23.53;100.00;99189.97;5051222;28;19962;-40
2022/07/07 02:43:12;;;;;;;;;;;;;;;23.47;99.71;99177.31;5050617;28;19936;-40
2022/07/07 02:45:47;;;;;;;;;;;;;;;23.38;100.00;99179.75;5050497;28;20703;-40
2022/07/07 02:48:13;;;;;;;;;;;;;;;23.43;100.00;99178.56;5050067;28;20515;-40
2022/07/07 02:50:39;;;;;;;;;;;;;;;23.53;100.00;99176.81;5049274;28;20001;-40
2022/07/07 02:53:04;;;;;;;;;;;;;;;23.41;100.00;99175.22;5050037;28;19920;-40
2022/07/07 02:55:30;;;;;;;;;;;;;;;23.59;100.00;99168.44;5051445;28;19927;-40
2022/07/07 02:57:56;;;;;;;;;;;;;;;23.53;100.00;99161.03;5049951;28;19967;-40
2022/07/07 03:00:21;;;;;;;;;;;;;;;23.61;100.00;99161.25;5050475;28;19932;-40
2022/07/07 03:02:46;;;;;;;;;;;;;;;23.59;100.00;99155.28;5049770;28;19956;-40
2022/07/07 03:05:11;;;;;;;;;;;;;;;23.28;100.00;99154.34;5049394;28;19920;-40
2022/07/07 03:07:40;;;;;;;;;;;;;;;23.59;100.00;99150.84;5050435;28;19965;-40
2022/07/07 03:10:06;;;;;;;;;;;;;;;23.45;100.00;99152.97;5049617;28;19958;-40
2022/07/07 03:12:31;;;;;;;;;;;;;;;23.32;100.00;99159.22;5049742;28;20013;-39
2022/07/07 03:14:57;;;;;;;;;;;;;;;23.51;100.00;99158.53;5049097;28;20043;-40
2022/07/07 03:17:22;;;;;;;;;;;;;;;23.32;100.00;99150.53;5050099;28;19960;-40
2022/07/07 03:19:47;;;;;;;;;;;;;;;23.27;100.00;99150.91;5050122;28;19921;-40
2022/07/07 03:22:12;;;;;;;;;;;;;;;23.42;100.00;99153.22;5050821;28;20007;-40
2022/07/07 03:24:37;;;;;;;;;;;;;;;23.26;100.00;99153.66;5048871;28;20007;-40
2022/07/07 03:27:03;;;;;;;;;;;;;;;23.03;100.00;99152.91;5051086;28;19948;-40
2022/07/07 03:29:28;;;;;;;;;;;;;;;23.29;100.00;99143.72;5051578;28;19916;-40
2022/07/07 03:31:53;;;;;;;;;;;;;;;23.23;100.00;99143.41;5049404;28;19916;-40
2022/07/07 03:34:19;;;;;;;;;;;;;;;22.95;100.00;99141.19;5048516;28;19927;-40
2022/07/07 03:36:44;;;;;;;;;;;;;;;23.29;100.00;99127.97;5048639;28;19916;-40
2022/07/07 03:39:09;;;;;;;;;;;;;;;23.58;100.00;99128.16;5053770;28;20639;-40
2022/07/07 03:41:34;;;;;;;;;;;;;;;23.24;100.00;99124.88;5053582;28;19947;-39
2022/07/07 03:44:00;;;;;;;;;;;;;;;23.41;100.00;99122.66;5055347;28;19928;-40
2022/07/07 03:46:25;;;;;;;;;;;;;;;23.07;100.00;99117.56;5053221;28;19951;-40
2022/07/07 03:48:50;;;;;;;;;;;;;;;22.89;100.00;99125.09;5051159;28;19944;-40
2022/07/07 03:51:15;;;;;;;;;;;;;;;22.64;100.00;99123.63;5053042;28;19920;-40
2022/07/07 03:53:41;;;;;;;;;;;;;;;22.52;100.00;99120.19;5054045;28;19932;-40
2022/07/07 03:56:06;;;;;;;;;;;;;;;22.42;100.00;99117.47;5052944;28;19965;-40
2022/07/07 03:58:31;;;;;;;;;;;;;;;21.86;100.00;99120.06;5052386;28;19924;-40
2022/07/07 04:00:57;;;;;;;;;;;;;;;22.03;100.00;99116.97;5052166;28;19920;-40
2022/07/07 04:03:22;;;;;;;;;;;;;;;21.20;100.00;99117.97;5051860;28;20768;-40
2022/07/07 04:05:47;;;;;;;;;;;;;;;21.94;100.00;99112.44;5052819;28;19936;-40
2022/07/07 04:08:13;;;;;;;;;;;;;;;22.08;100.00;99108.75;5054337;28;20300;-40
2022/07/07 04:10:38;;;;;;;;;;;;;;;21.92;100.00;99114.34;5051503;28;19916;-39
2022/07/07 04:13:03;;;;;;;;;;;;;;;22.48;100.00;99113.50;5053163;28;20031;-40
2022/07/07 04:15:28;;;;;;;;;;;;;;;21.83;100.00;99104.59;5052366;28;19999;-40
2022/07/07 04:17:54;;;;;;;;;;;;;;;22.17;100.00;99117.66;5051870;28;19920;-40
2022/07/07 04:20:19;;;;;;;;;;;;;;;21.52;100.00;99120.00;5052889;28;20278;-40
2022/07/07 04:22:44;;;;;;;;;;;;;;;21.75;100.00;99113.00;5052591;28;20047;-40
2022/07/07 04:25:10;;;;;;;;;;;;;;;22.10;100.00;99102.44;5052438;28;19912;-40
2022/07/07 04:27:35;;;;;;;;;;;;;;;21.48;100.00;99105.47;5052274;28;19920;-40
2022/07/07 04:30:00;;;;;;;;;;;;;;;21.67;100.00;99097.06;5051616;28;20794;-40
2022/07/07 04:32:25;;;;;;;;;;;;;;;21.76;100.00;99103.34;5052247;28;20392;-40
2022/07/07 04:34:51;;;;;;;;;;;;;;;21.76;100.00;99096.34;5051728;28;20039;-40
2022/07/07 04:37:16;;;;;;;;;;;;;;;22.01;100.00;99100.53;5049018;28;19951;-40
2022/07/07 04:39:41;;;;;;;;;;;;;;;22.27;100.00;99089.81;5053351;28;19987;-40
2022/07/07 04:42:06;;;;;;;;;;;;;;;21.40;100.00;99087.69;5052787;28;21170;-40
2022/07/07 04:44:32;;;;;;;;;;;;;;;22.02;100.00;99081.22;5054384;28;19962;-40
2022/07/07 04:46:57;;;;;;;;;;;;;;;21.96;100.00;99081.66;5051992;28;19920;-40
2022/07/07 04:49:22;;;;;;;;;;;;;;;22.11;100.00;99077.84;5051956;28;20404;-39
2022/07/07 04:51:48;;;;;;;;;;;;;;;22.37;100.00;99077.63;5051673;28;19936;-40
2022/07/07 04:54:13;;;;;;;;;;;;;;;21.85;100.00;99073.81;5052507;28;19995;-40
2022/07/07 04:56:38;;;;;;;;;;;;;;;21.07;100.00;99070.06;5052779;28;19923;-39
2022/07/07 04:59:04;;;;;;;;;;;;;;;22.06;100.00;99069.53;5051684;28;19966;-40
2022/07/07 05:01:29;;;;;;;;;;;;;;;21.13;100.00;99071.41;5051034;28;19924;-39
2022/07/07 05:03:54;;;;;;;;;;;;;;;22.42;100.00;99067.59;5050823;28;19924;-40
2022/07/07 05:06:19;;;;;;;;;;;;;;;21.63;100.00;99072.03;5053077;28;19924;-40
2022/07/07 05:08:45;;;;;;;;;;;;;;;21.96;100.00;99065.94;5053756;28;19998;-40
2022/07/07 05:11:10;;;;;;;;;;;;;;;21.59;100.00;99081.91;5052394;28;19956;-40
2022/07/07 05:13:35;;;;;;;;;;;;;;;22.64;100.00;99081.63;5050856;28;20019;-40
2022/07/07 05:16:00;;;;;;;;;;;;;;;22.44;100.00;99076.19;5052493;28;19920;-40
2022/07/07 05:18:26;;;;;;;;;;;;;;;21.81;100.00;99077.63;5052501;28;20427;-40
2022/07/07 05:20:51;;;;;;;;;;;;;;;22.09;100.00;99069.28;5052777;28;19924;-40
2022/07/07 05:23:16;;;;;;;;;;;;;;;22.43;100.00;99071.88;5051162;28;20324;-40
2022/07/07 05:25:41;;;;;;;;;;;;;;;22.08;100.00;99070.25;5051281;28;19974;-40
2022/07/07 05:28:07;;;;;;;;;;;;;;;23.07;100.00;99072.88;5053346;28;19920;-41
2022/07/07 05:30:32;;;;;;;;;;;;;;;22.91;100.00;99070.66;5050767;28;19920;-42
2022/07/07 05:32:57;;;;;;;;;;;;;;;22.66;100.00;99071.81;5052245;28;20019;-43
2022/07/07 05:35:22;;;;;;;;;;;;;;;22.60;100.00;99064.44;5052175;28;20007;-42
2022/07/07 05:37:48;;;;;;;;;;;;;;;23.02;100.00;99075.06;5050068;28;20781;-42
2022/07/07 05:40:13;;;;;;;;;;;;;;;22.87;100.00;99069.25;5051557;28;20297;-43
2022/07/07 05:42:38;;;;;;;;;;;;;;;22.72;100.00;99068.72;5051418;28;19947;-43
2022/07/07 05:45:04;;;;;;;;;;;;;;;22.08;100.00;99067.63;5051916;28;19962;-43
2022/07/07 05:47:30;;;;;;;;;;;;;;;21.65;100.00;99059.63;5052192;28;20320;-43
2022/07/07 05:49:55;;;;;;;;;;;;;;;21.35;100.00;99054.91;5050822;28;19921;-43
2022/07/07 05:52:20;;;;;;;;;;;;;;;21.22;100.00;99053.22;5051892;28;19988;-42
2022/07/07 05:54:45;;;;;;;;;;;;;;;20.74;100.00;99052.47;5051722;28;19947;-43
2022/07/07 05:57:11;;;;;;;;;;;;;;;20.59;100.00;99051.78;5052908;28;19954;-44
2022/07/07 05:59:36;;;;;;;;;;;;;;;20.25;100.00;99051.56;5051482;28;19927;-42
2022/07/07 06:02:01;;;;;;;;;;;;;;;19.51;100.00;99059.25;5053161;28;19935;-42
2022/07/07 06:04:26;;;;;;;;;;;;;;;19.48;100.00;99062.09;5053170;28;19927;-42
2022/07/07 06:06:52;;;;;;;;;;;;;;;19.39;100.00;99058.31;5052367;28;20416;-42
2022/07/07 06:09:18;;;;;;;;;;;;;;;18.70;100.00;99069.81;5052866;28;20278;-47
2022/07/07 06:11:43;;;;;;;;;;;;;;;18.84;100.00;99089.81;5049615;28;20313;-42
2022/07/07 06:14:08;;;;;;;;;;;;;;;19.14;100.00;99100.91;5052759;28;19958;-43
2022/07/07 06:16:40;;;;;;;;;;;;;;;18.84;100.00;99121.13;5052371;28;19951;-44
2022/07/07 06:19:06;;;;;;;;;;;;;;;18.56;87.24;99143.72;5051205;28;19920;-44
2022/07/07 06:21:31;;;;;;;;;;;;;;;18.19;75.26;99159.88;5052601;28;20023;-46
2022/07/07 06:23:56;;;;;;;;;;;;;;;18.60;64.97;99200.00;5054105;28;19912;-44
2022/07/07 06:26:22;;;;;;;;;;;;;;;18.46;63.09;99213.06;5053759;28;20035;-44
2022/07/07 06:28:47;;;;;;;;;;;;;;;18.38;64.27;99221.31;5051158;28;20015;-45
2022/07/07 06:31:12;;;;;;;;;;;;;;;18.71;61.77;99218.44;5051240;28;20399;-46
2022/07/07 06:33:37;;;;;;;;;;;;;;;18.54;65.07;99226.44;5052572;28;19917;-45
2022/07/07 06:36:03;;;;;;;;;;;;;;;19.04;60.66;99227.72;5051280;28;20373;-46
2022/07/07 06:38:28;;;;;;;;;;;;;;;19.32;69.52;99228.59;5052092;28;20648;-45
2022/07/07 06:40:57;;;;;;;;;;;;;;;19.27;70.17;99220.19;5051326;28;20009;-45
2022/07/07 06:43:22;;;;;;;;;;;;;;;19.67;68.38;99231.50;5050739;28;19935;-45
2022/07/07 06:45:47;;;;;;;;;;;;;;;20.37;70.24;99230.34;5051424;28;19920;-45
2022/07/07 06:48:12;;;;;;;;;;;;;;;20.20;82.27;99228.88;5051224;28;19946;-44
2022/07/07 06:50:38;;;;;;;;;;;;;;;20.01;85.83;99217.06;5048343;28;19955;-47
2022/07/07 06:53:03;;;;;;;;;;;;;;;19.54;88.49;99218.38;5052021;28;19956;-45
2022/07/07 06:55:28;;;;;;;;;;;;;;;19.55;89.17;99214.84;5050450;28;19920;-45
2022/07/07 06:57:53;;;;;;;;;;;;;;;19.35;82.26;99224.00;5049335;28;19966;-45
2022/07/07 07:00:19;;;;;;;;;;;;;;;19.99;86.44;99234.59;5049772;28;19920;-44
2022/07/07 07:02:44;;;;;;;;;;;;;;;19.62;87.62;99231.81;5050002;28;19978;-43
2022/07/07 07:05:09;;;;;;;;;;;;;;;19.40;84.17;99224.53;5049635;28;19993;-48
2022/07/07 07:07:35;;;;;;;;;;;;;;;20.00;87.62;99225.84;5050978;28;19927;-45
2022/07/07 07:10:00;;;;;;;;;;;;;;;19.73;88.44;99222.44;5051129;28;20043;-44
2022/07/07 07:12:25;;;;;;;;;;;;;;;19.63;85.22;99238.69;5052050;28;19959;-45
2022/07/07 07:14:50;;;;;;;;;;;;;;;19.65;85.32;99231.59;5053561;28;19956;-44
2022/07/07 07:17:16;;;;;;;;;;;;;;;20.34;90.18;99227.94;5053030;28;19966;-47
2022/07/07 07:19:41;;;;;;;;;;;;;;;20.39;100.00;99221.44;5052655;28;19924;-44
2022/07/07 07:22:06;;;;;;;;;;;;;;;20.22;99.84;99219.16;5055575;28;20031;-43
2022/07/07 07:24:31;;;;;;;;;;;;;;;20.09;100.00;99216.50;5052843;28;20893;-44
2022/07/07 07:26:57;;;;;;;;;;;;;;;19.31;93.57;99232.13;5056125;28;19920;-44
2022/07/07 07:29:22;;;;;;;;;;;;;;;19.65;92.48;99233.38;5053554;28;19973;-44
2022/07/07 07:31:47;;;;;;;;;;;;;;;19.44;94.87;99251.28;5054472;28;19935;-45
2022/07/07 07:34:12;;;;;;;;;;;;;;;19.11;83.13;99257.75;5052971;28;20000;-45
2022/07/07 07:36:38;;;;;;;;;;;;;;;19.12;74.71;99269.00;5054794;28;19928;-45
2022/07/07 07:39:03;;;;;;;;;;;;;;;19.09;72.54;99267.44;5054125;28;19927;-44
2022/07/07 07:41:28;;;;;;;;;;;;;;;19.14;69.55;99273.19;5055514;28;20013;-45
2022/07/07 07:43:53;;;;;;;;;;;;;;;19.61;67.44;99277.16;5055583;28;19971;-45
2022/07/07 07:46:19;;;;;;;;;;;;;;;19.87;74.80;99271.22;5054926;28;19978;-45
2022/07/07 07:48:44;;;;;;;;;;;;;;;20.02;83.48;99278.84;5055535;28;19924;-46
2022/07/07 07:51:10;;;;;;;;;;;;;;;19.00;83.26;99286.28;5055078;28;19920;-45
2022/07/07 07:53:35;;;;;;;;;;;;;;;18.89;70.14;99288.72;5055372;28;19921;-44
2022/07/07 07:56:00;;;;;;;;;;;;;;;19.07;68.59;99302.38;5055542;28;20607;-44
2022/07/07 07:58:26;;;;;;;;;;;;;;;18.65;67.10;99307.50;5044924;28;20015;-46
2022/07/07 08:00:51;;;;;;;;;;;;;;;18.86;58.48;99320.19;5048216;28;19924;-43
2022/07/07 08:03:17;;;;;;;;;;;;;;;18.98;59.55;99324.69;5049175;28;20023;-43
2022/07/07 08:05:42;;;;;;;;;;;;;;;19.15;58.78;99328.84;5054322;28;20369;-44
2022/07/07 08:08:07;;;;;;;;;;;;;;;19.16;60.40;99339.22;5052644;28;19920;-45
2022/07/07 08:10:33;;;;;;;;;;;;;;;19.02;60.66;99326.16;5053778;28;19916;-47
2022/07/07 08:12:58;;;;;;;;;;;;;;;19.11;59.29;99330.84;5051525;28;19985;-43
2022/07/07 08:15:23;;;;;;;;;;;;;;;19.14;60.65;99330.63;5052749;28;19916;-45
2022/07/07 08:17:49;;;;;;;;;;;;;;;18.81;62.69;99334.38;5051740;28;20325;-47
2022/07/07 08:20:15;;;;;;;;;;;;;;;19.42;61.64;99339.34;5052427;28;19925;-45
2022/07/07 08:22:40;;;;;;;;;;;;;;;19.63;65.79;99332.75;5051982;28;19931;-45
2022/07/07 08:25:06;;;;;;;;;;;;;;;19.33;70.54;99334.72;5054207;28;19916;-45
2022/07/07 08:27:31;;;;;;;;;;;;;;;19.14;68.86;99338.47;5052063;28;20187;-46
2022/07/07 08:29:56;;;;;;;;;;;;;;;19.35;68.24;99338.91;5049677;28;19949;-45
2022/07/07 08:32:22;;;;;;;;;;;;;;;19.55;72.61;99336.81;5053271;28;19924;-46
2022/07/07 08:34:47;;;;;;;;;;;;;;;20.03;78.47;99332.81;5053027;28;19912;-44
2022/07/07 08:37:12;;;;;;;;;;;;;;;19.42;87.12;99334.13;5053176;28;20354;-44
2022/07/07 08:39:38;;;;;;;;;;;;;;;19.52;84.32;99332.59;5048666;28;20620;-45
2022/07/07 08:42:04;;;;;;;;;;;;;;;19.68;86.64;99339.47;5048154;28;20392;-44
2022/07/07 08:44:29;;;;;;;;;;;;;;;19.85;93.02;99339.25;5054729;28;19920;-44
2022/07/07 08:46:54;;;;;;;;;;;;;;;19.73;100.00;99334.81;5052112;28;19925;-45
2022/07/07 08:49:19;;;;;;;;;;;;;;;19.37;100.00;99329.19;5051097;28;19925;-43
2022/07/07 08:51:45;;;;;;;;;;;;;;;19.76;100.00;99329.41;5052562;28;19924;-44
2022/07/07 08:54:11;;;;;;;;;;;;;;;19.56;100.00;99347.13;5052374;28;20389;-43
2022/07/07 08:56:38;;;;;;;;;;;;;;;20.38;100.00;99328.78;5053181;28;20021;-43
2022/07/07 08:59:04;;;;;;;;;;;;;;;20.63;100.00;99330.63;5053193;28;19967;-42
2022/07/07 09:01:29;;;;;;;;;;;;;;;20.31;100.00;99335.38;5054953;28;20706;-42
2022/07/07 09:03:54;;;;;;;;;;;;;;;20.67;100.00;99335.53;5052611;28;19927;-42
2022/07/07 09:06:20;;;;;;;;;;;;;;;21.13;100.00;99326.28;5054075;28;20011;-42
2022/07/07 09:08:45;;;;;;;;;;;;;;;20.02;100.00;99328.50;5053199;28;20841;-41
2022/07/07 09:11:10;;;;;;;;;;;;;;;20.03;100.00;99330.19;5052037;28;20295;-42
2022/07/07 09:13:35;;;;;;;;;;;;;;;19.87;100.00;99326.94;5034793;28;19921;-43
2022/07/07 09:16:02;;;;;;;;;;;;;;;20.44;100.00;99329.22;5052404;28;19924;-44
2022/07/07 09:18:35;;;;;;;;;;;;;;;20.77;100.00;99320.03;5054529;28;19999;-44
2022/07/07 09:21:01;;;;;;;;;;;;;;;20.52;100.00;99314.78;5053201;28;19916;-43
2022/07/07 09:23:27;;;;;;;;;;;;;;;20.86;100.00;99314.16;5054037;28;19920;-44
2022/07/07 09:25:52;;;;;;;;;;;;;;;20.95;100.00;99322.31;5053038;28;19920;-43
2022/07/07 09:28:17;;;;;;;;;;;;;;;21.15;100.00;99329.63;5052226;28;19927;-42
2022/07/07 09:30:43;;;;;;;;;;;;;;;20.12;100.00;99335.78;5052210;28;19920;-42
2022/07/07 09:33:18;;;;;;;;;;;;;;;20.85;100.00;99322.13;5054022;28;19924;-42
2022/07/07 09:38:30;;;;;;;;;;;;;;;21.01;100.00;99337.63;5053371;28;20284;-42
2022/07/07 09:40:55;;;;;;;;;;;;;;;20.73;100.00;99333.44;5051742;28;20007;-43
2022/07/07 09:43:21;;;;;;;;;;;;;;;20.63;100.00;99335.84;5053665;28;19923;-41
2022/07/07 09:45:47;;;;;;;;;;;;;;;20.34;100.00;99341.22;5052740;28;19954;-42
2022/07/07 09:48:12;;;;;;;;;;;;;;;20.77;100.00;99340.13;5052288;28;19927;-41
2022/07/07 09:50:38;;;;;;;;;;;;;;;21.07;100.00;99340.66;5050409;28;19921;-41
2022/07/07 09:53:07;;;;;;;;;;;;;;;21.25;100.00;99335.88;5051591;28;19925;-41
2022/07/07 09:55:32;;;;;;;;;;;;;;;21.14;100.00;99338.41;5052940;28;20534;-41
2022/07/07 09:57:57;;;;;;;;;;;;;;;20.77;100.00;99340.13;5053772;28;19920;-41
2022/07/07 10:00:23;;;;;;;;;;;;;;;20.13;100.00;99342.66;5051204;28;19932;-41
2022/07/07 10:02:51;;;;;;;;;;;;;;;20.78;100.00;99353.13;5051439;28;20217;-42
2022/07/07 10:05:19;;;;;;;;;;;;;;;20.72;100.00;99358.78;5051870;28;19984;-41
2022/07/07 10:07:45;;;;;;;;;;;;;;;20.66;100.00;99361.81;5052660;28;19916;-41
2022/07/07 10:10:12;;;;;;;;;;;;;;;21.38;100.00;99366.47;5053770;28;20327;-41
2022/07/07 10:12:38;;;;;;;;;;;;;;;20.94;100.00;99363.38;5052297;28;19924;-41
2022/07/07 10:15:11;;;;;;;;;;;;;;;21.72;100.00;99365.75;5050852;28;20004;-41
2022/07/07 10:17:36;;;;;;;;;;;;;;;22.11;100.00;99361.13;5049578;28;20008;-41
2022/07/07 10:20:02;;;;;;;;;;;;;;;22.75;100.00;99370.41;5051070;28;20060;-41
2022/07/07 10:22:27;;;;;;;;;;;;;;;23.34;100.00;99357.06;5052064;28;19920;-41
2022/07/07 10:24:56;;;;;;;;;;;;;;;22.81;100.00;99369.94;5050105;28;19935;-41
2022/07/07 10:27:23;;;;;;;;;;;;;;;22.74;100.00;99351.19;5049489;28;19924;-41
2022/07/07 10:29:52;;;;;;;;;;;;;;;22.68;100.00;99348.19;5050667;28;19920;-41
2022/07/07 10:32:23;;;;;;;;;;;;;;;21.76;100.00;99360.25;5049704;28;19929;-40
2022/07/07 10:34:52;;;;;;;;;;;;;;;21.87;100.00;99362.94;5052066;28;20479;-41
2022/07/07 10:37:17;;;;;;;;;;;;;;;21.05;100.00;99368.72;5031372;28;19928;-41
2022/07/07 10:39:47;;;;;;;;;;;;;;;21.13;100.00;99367.34;5051473;28;19917;-40
2022/07/07 10:42:15;;;;;;;;;;;;;;;20.83;100.00;99366.72;5051804;28;19924;-40
2022/07/07 10:44:41;;;;;;;;;;;;;;;20.62;100.00;99374.28;5053004;28;19916;-40
2022/07/07 10:47:12;;;;;;;;;;;;;;;20.77;100.00;99375.00;5056811;28;20381;-40
2022/07/07 10:49:38;;;;;;;;;;;;;;;20.97;100.00;99393.75;5054722;28;19922;-40
2022/07/07 10:52:05;;;;;;;;;;;;;;;21.70;100.00;99383.34;5052590;28;19924;-40
2022/07/07 10:54:32;;;;;;;;;;;;;;;22.11;100.00;99387.38;5056549;28;19999;-40
2022/07/07 10:56:59;;;;;;;;;;;;;;;22.35;100.00;99383.91;5055756;28;20519;-40
2022/07/07 10:59:24;;;;;;;;;;;;;;;21.66;100.00;99397.63;5055861;28;19917;-40
2022/07/07 11:02:02;;;;;;;;;;;;;;;22.17;100.00;99393.09;5050650;28;20534;-40
2022/07/07 11:04:43;;;;;;;;;;;;;;;22.24;100.00;99391.75;5054500;28;20027;-40
2022/07/07 11:07:18;;;;;;;;;;;;;;;22.63;100.00;99398.44;5053251;28;19916;-40
2022/07/07 11:09:59;;;;;;;;;;;;;;;22.70;100.00;99396.19;5049174;28;20370;-40
2022/07/07 11:12:42;;;;;;;;;;;;;;;21.69;100.00;99405.28;5051127;28;19924;-40
2022/07/07 11:15:24;;;;;;;;;;;;;;;21.59;100.00;99406.88;5052084;28;19920;-40
2022/07/07 11:17:52;;;;;;;;;;;;;;;21.87;100.00;99404.88;5050881;28;19993;-40
2022/07/07 11:20:18;;;;;;;;;;;;;;;22.00;100.00;99413.53;5052248;28;19920;-40
2022/07/07 11:22:44;;;;;;;;;;;;;;;22.44;100.00;99419.97;5050449;28;19925;-40
2022/07/07 11:25:09;;;;;;;;;;;;;;;22.30;100.00;99420.16;5051972;28;19924;-40
2022/07/07 11:27:35;;;;;;;;;;;;;;;22.76;100.00;99414.06;5050278;28;20043;-40
2022/07/07 11:30:00;;;;;;;;;;;;;;;22.98;100.00;99423.78;5048501;28;19920;-40
2022/07/07 11:32:26;;;;;;;;;;;;;;;22.56;100.00;99428.72;5049673;28;19920;-40
2022/07/07 11:34:51;;;;;;;;;;;;;;;23.25;100.00;99415.59;5050657;28;19924;-40
2022/07/07 11:37:20;;;;;;;;;;;;;;;22.76;100.00;99419.31;5051702;28;20624;-40
2022/07/07 11:39:46;;;;;;;;;;;;;;;23.92;100.00;99414.66;5049960;28;20565;-40
2022/07/07 11:42:11;;;;;;;;;;;;;;;23.64;100.00;99415.19;5048556;28;19955;-40
2022/07/07 11:44:36;;;;;;;;;;;;;;;23.62;100.00;99411.84;5053264;28;21326;-40
2022/07/07 11:47:01;;;;;;;;;;;;;;;22.90;100.00;99420.94;5051649;28;19999;-40
2022/07/07 11:49:27;;;;;;;;;;;;;;;21.99;100.00;99425.00;5052179;28;20019;-40
2022/07/07 11:51:52;;;;;;;;;;;;;;;22.20;100.00;99427.00;5049476;28;20161;-40
2022/07/07 11:54:17;;;;;;;;;;;;;;;22.51;100.00;99423.81;5051792;28;19924;-40
2022/07/07 11:56:43;;;;;;;;;;;;;;;21.65;100.00;99427.41;5050894;28;19977;-40
2022/07/07 11:59:08;;;;;;;;;;;;;;;21.57;100.00;99442.84;5049309;28;19989;-40
2022/07/07 12:01:34;;;;;;;;;;;;;;;21.10;100.00;99437.31;5050240;28;19943;-40
2022/07/07 12:04:20;;;;;;;;;;;;;;;21.43;100.00;99442.97;5049406;28;19973;-40
2022/07/07 12:06:46;;;;;;;;;;;;;;;21.61;100.00;99446.91;5050785;28;19920;-40
2022/07/07 12:09:11;;;;;;;;;;;;;;;22.35;100.00;99449.50;5049880;28;19930;-40
2022/07/07 12:11:37;;;;;;;;;;;;;;;22.01;100.00;99451.09;5053719;28;19936;-40
2022/07/07 12:14:03;;;;;;;;;;;;;;;22.99;100.00;99446.53;5051816;28;20030;-40
2022/07/07 12:16:39;;;;;;;;;;;;;;;23.66;100.00;99440.41;5051749;28;19921;-40
2022/07/07 12:19:05;;;;;;;;;;;;;;;24.35;100.00;99434.03;5045909;28;19920;-40
2022/07/07 12:21:31;;;;;;;;;;;;;;;24.36;100.00;99446.25;5053517;28;19920;-40
2022/07/07 12:23:56;;;;;;;;;;;;;;;23.89;100.00;99446.50;5051554;28;19920;-40
2022/07/07 12:26:25;;;;;;;;;;;;;;;23.34;100.00;99451.66;5050934;28;20716;-40
2022/07/07 12:28:50;;;;;;;;;;;;;;;22.97;100.00;99459.72;5052445;28;19920;-40
2022/07/07 12:31:20;;;;;;;;;;;;;;;22.82;100.00;99463.50;5048834;28;19935;-40
2022/07/07 12:33:45;;;;;;;;;;;;;;;22.39;100.00;99468.50;5047805;28;19927;-40
2022/07/07 12:36:10;;;;;;;;;;;;;;;22.37;100.00;99465.16;5051658;28;19936;-40